Time;durP1;ratioP1;P1;durP2;ratioP2;P2;SDS_P1;SDS_P2;PMS_P1;PMS_P2;Temp;Humidity;BMP_temperature;BMP_pressure;BME280_temperature;BME280_humidity;BME280_pressure;Samples;Min_cycle;Max_cycle;Signal;HPM_P1;HPM_P2
2023/01/25 00:01:27;;;;;;;75.93;53.53;;;;;;;0.12;95.74;103699.09;5030151;28;20041;-58
2023/01/25 00:03:52;;;;;;;78.07;54.88;;;;;;;0.13;96.07;103698.22;5029677;28;20067;-58
2023/01/25 00:06:17;;;;;;;76.22;53.92;;;;;;;0.13;95.36;103700.84;5024872;28;20034;-57
2023/01/25 00:08:43;;;;;;;82.20;55.17;;;;;;;0.13;95.73;103693.91;5030337;28;20473;-58
2023/01/25 00:11:08;;;;;;;79.13;55.22;;;;;;;0.13;95.97;103690.38;5024393;28;20033;-57
2023/01/25 00:13:33;;;;;;;80.70;55.10;;;;;;;0.12;95.98;103692.13;5027288;28;20025;-57
2023/01/25 00:16:05;;;;;;;82.78;55.75;;;;;;;0.13;96.43;103683.44;5030031;28;20091;-56
2023/01/25 00:18:30;;;;;;;84.50;56.70;;;;;;;0.13;95.82;103691.28;5030332;28;20159;-56
2023/01/25 00:20:55;;;;;;;83.63;56.78;;;;;;;0.12;95.94;103680.81;5030147;28;20485;-57
2023/01/25 00:23:21;;;;;;;84.45;56.47;;;;;;;0.12;95.80;103683.41;5025400;28;20033;-58
2023/01/25 00:25:46;;;;;;;84.03;55.72;;;;;;;0.11;95.61;103679.03;5030503;28;20344;-58
2023/01/25 00:28:11;;;;;;;83.15;56.30;;;;;;;0.10;96.10;103682.50;5030424;28;20391;-57
2023/01/25 00:30:36;;;;;;;81.35;55.00;;;;;;;0.11;95.91;103686.88;5030349;28;20025;-58
2023/01/25 00:33:37;;;;;;;84.38;56.20;;;;;;;0.15;96.36;103683.44;5034207;28;20029;-56
2023/01/25 00:36:22;;;;;;;83.07;54.65;;;;;;;0.14;95.69;103689.53;5026916;28;20033;-57
2023/01/25 00:38:47;;;;;;;90.50;57.38;;;;;;;0.10;95.63;103685.13;5033749;28;20123;-58
2023/01/25 00:41:12;;;;;;;90.95;58.03;;;;;;;0.08;95.39;103686.84;5033973;28;20060;-55
2023/01/25 00:43:38;;;;;;;90.97;57.35;;;;;;;0.07;95.59;103677.25;5038869;28;20124;-58
2023/01/25 00:46:03;;;;;;;89.65;59.38;;;;;;;0.04;95.03;103683.31;5027400;28;20483;-57
2023/01/25 00:48:28;;;;;;;89.85;59.88;;;;;;;0.04;95.71;103675.47;5039087;28;20059;-57
2023/01/25 00:50:53;;;;;;;90.88;60.10;;;;;;;0.05;96.62;103679.84;5026673;28;21129;-58
2023/01/25 00:53:19;;;;;;;95.38;60.50;;;;;;;0.06;96.48;103675.50;5033493;28;20025;-57
2023/01/25 00:55:51;;;;;;;91.25;59.05;;;;;;;0.07;97.01;103679.88;5033653;28;20048;-58
2023/01/25 00:58:17;;;;;;;88.80;56.95;;;;;;;0.06;96.17;103678.97;5028431;28;20117;-57
2023/01/25 01:00:42;;;;;;;88.65;57.80;;;;;;;0.08;96.34;103672.03;5025593;28;20473;-58
2023/01/25 01:03:07;;;;;;;84.13;57.70;;;;;;;0.09;96.59;103671.19;5033280;28;20029;-56
2023/01/25 01:05:35;;;;;;;88.80;57.33;;;;;;;0.10;96.14;103659.88;5025748;28;20021;-57
2023/01/25 01:08:00;;;;;;;96.00;61.03;;;;;;;0.09;96.46;103663.34;5027965;28;20029;-57
2023/01/25 01:10:25;;;;;;;90.15;60.28;;;;;;;0.09;96.69;103663.34;5033501;28;20033;-56
2023/01/25 01:12:51;;;;;;;100.78;62.50;;;;;;;0.11;96.16;103663.38;5027931;28;20022;-58
2023/01/25 01:15:16;;;;;;;95.47;60.65;;;;;;;0.10;96.30;103662.50;5033628;28;20037;-58
2023/01/25 01:17:41;;;;;;;94.80;58.83;;;;;;;0.11;96.16;103659.00;5037311;28;20029;-57
2023/01/25 01:20:07;;;;;;;92.93;60.42;;;;;;;0.12;96.44;103659.91;5029397;28;20033;-57
2023/01/25 01:22:32;;;;;;;96.93;61.55;;;;;;;0.10;96.98;103662.50;5027541;28;20056;-57
2023/01/25 01:24:58;;;;;;;91.32;59.58;;;;;;;0.11;96.56;103659.00;5033808;28;20464;-57
2023/01/25 01:27:23;;;;;;;94.15;60.53;;;;;;;0.11;96.69;103652.91;5021558;28;20090;-57
2023/01/25 01:29:48;;;;;;;95.75;62.13;;;;;;;0.11;96.32;103652.91;5043916;28;20419;-54
2023/01/25 01:32:13;;;;;;;97.60;61.38;;;;;;;0.11;96.08;103659.00;5031830;28;20026;-54
2023/01/25 01:34:39;;;;;;;99.97;63.00;;;;;;;0.09;95.74;103655.50;5032959;28;20025;-54
2023/01/25 01:37:04;;;;;;;92.55;59.95;;;;;;;0.09;95.81;103658.13;5026728;28;20030;-55
2023/01/25 01:39:29;;;;;;;96.20;60.75;;;;;;;0.08;96.00;103652.88;5032567;28;20040;-56
2023/01/25 01:41:55;;;;;;;99.55;64.72;;;;;;;0.06;96.65;103650.22;5029509;28;20423;-55
2023/01/25 01:44:44;;;;;;;99.55;64.53;;;;;;;0.05;95.69;103653.72;5034048;28;20104;-57
2023/01/25 01:47:34;;;;;;;97.43;63.05;;;;;;;0.03;95.79;103655.41;5028791;28;20091;-56
2023/01/25 01:50:19;;;;;;;98.43;62.47;;;;;;;-0.01;95.81;103667.56;5028214;28;20040;-55
2023/01/25 01:52:44;;;;;;;100.22;63.15;;;;;;;-0.06;95.88;103661.41;5033868;28;20029;-57
2023/01/25 01:55:14;;;;;;;98.45;63.17;;;;;;;-0.07;96.41;103669.22;5030499;28;20399;-55
2023/01/25 01:57:42;;;;;;;97.95;61.60;;;;;;;-0.05;96.90;103665.78;5026479;28;20476;-57
2023/01/25 02:00:12;;;;;;;105.10;63.83;;;;;;;-0.05;96.37;103667.50;5033370;28;20043;-58
2023/01/25 02:02:40;;;;;;;95.05;61.60;;;;;;;-0.03;96.75;103661.44;5033804;28;20113;-57
2023/01/25 02:05:10;;;;;;;102.05;63.38;;;;;;;-0.02;96.46;103659.69;5022855;28;20376;-57
2023/01/25 02:07:37;;;;;;;101.70;64.85;;;;;;;-0.03;96.42;103653.59;5028667;28;20546;-57
2023/01/25 02:10:05;;;;;;;100.90;62.17;;;;;;;-0.02;96.41;103663.22;5030835;28;20059;-58
2023/01/25 02:12:31;;;;;;;96.88;62.33;;;;;;;-0.04;96.18;103664.91;5031352;28;20065;-57
2023/01/25 02:14:56;;;;;;;98.30;61.90;;;;;;;-0.04;95.94;103659.69;5033744;28;20026;-57
2023/01/25 02:17:48;;;;;;;103.07;63.38;;;;;;;0.01;96.13;103658.88;5033078;28;20030;-58
2023/01/25 02:20:28;;;;;;;101.00;61.92;;;;;;;-0.02;96.43;103654.47;5029534;28;20041;-57
2023/01/25 02:22:59;;;;;;;;;;;;;;;0.05;96.21;103647.59;5033745;28;20053;-57
2023/01/25 02:25:25;;;;;;;95.72;56.60;;;;;;;-0.05;95.91;103650.09;5033233;28;19932;-57
2023/01/25 02:27:56;;;;;;;100.97;62.13;;;;;;;-0.06;96.47;103647.47;5031793;28;20472;-58
2023/01/25 02:30:21;;;;;;;104.82;64.63;;;;;;;-0.07;96.04;103638.72;5033015;28;20117;-57
2023/01/25 02:32:47;;;;;;;104.57;64.15;;;;;;;-0.07;96.32;103650.94;5033154;28;20469;-57
2023/01/25 02:35:34;;;;;;;104.10;64.07;;;;;;;-0.08;96.05;103637.00;5032815;28;20056;-57
2023/01/25 02:37:59;;;;;;;101.63;61.92;;;;;;;-0.08;95.75;103641.34;5031802;28;20125;-58
2023/01/25 02:40:25;;;;;;;103.88;63.65;;;;;;;-0.09;95.87;103635.22;5032887;28;20022;-57
2023/01/25 02:42:50;;;;;;;103.28;63.85;;;;;;;-0.09;96.48;103631.75;5027347;28;20069;-57
2023/01/25 02:45:21;;;;;;;96.35;61.65;;;;;;;-0.11;96.54;103636.94;5033098;28;20487;-58
2023/01/25 02:47:47;;;;;;;103.47;64.25;;;;;;;-0.10;95.86;103624.75;5032582;28;20045;-57
2023/01/25 02:50:12;;;;;;;107.88;64.60;;;;;;;-0.13;95.98;103625.63;5032784;28;20013;-57
2023/01/25 02:52:38;;;;;;;101.28;62.97;;;;;;;-0.13;96.10;103617.78;5019978;28;20030;-57
2023/01/25 02:55:03;;;;;;;103.80;63.22;;;;;;;-0.15;95.62;103618.59;5032369;28;20052;-57
2023/01/25 02:57:29;;;;;;;102.65;64.97;;;;;;;-0.17;95.77;103630.78;5032789;28;20037;-56
2023/01/25 02:59:54;;;;;;;107.00;64.85;;;;;;;-0.18;95.97;103627.28;5031097;28;20391;-58
2023/01/25 03:02:19;;;;;;;106.55;65.88;;;;;;;-0.17;95.66;103626.41;5026549;28;20395;-57
2023/01/25 03:04:44;;;;;;;109.70;65.35;;;;;;;-0.18;96.01;103624.69;5031720;28;20381;-58
2023/01/25 03:07:10;;;;;;;110.65;66.25;;;;;;;-0.17;96.35;103621.19;5039059;28;20105;-57
2023/01/25 03:09:35;;;;;;;107.25;66.63;;;;;;;-0.17;95.94;103618.56;5031936;28;20021;-57
2023/01/25 03:12:00;;;;;;;109.53;65.85;;;;;;;-0.15;95.70;103622.13;5032445;28;20079;-58
2023/01/25 03:14:26;;;;;;;108.50;65.95;;;;;;;-0.17;95.95;103617.72;5027733;28;20507;-58
2023/01/25 03:16:51;;;;;;;105.97;65.05;;;;;;;-0.18;96.16;103614.22;5032443;28;20072;-57
2023/01/25 03:19:16;;;;;;;109.68;64.93;;;;;;;-0.20;95.96;103613.31;5032061;28;20108;-58
2023/01/25 03:21:41;;;;;;;110.95;66.53;;;;;;;-0.21;96.26;103607.22;5031630;28;20037;-58
2023/01/25 03:24:08;;;;;;;109.78;67.28;;;;;;;-0.20;96.69;103606.38;5031820;28;20033;-55
2023/01/25 03:27:09;;;;;;;109.72;64.45;;;;;;;-0.18;97.05;103603.78;5032408;28;20484;-58
2023/01/25 03:29:19;;;;;;;111.22;66.35;;;;;;;-0.17;96.71;103600.28;5032042;28;20108;-57
2023/01/25 03:31:44;;;;;;;111.30;64.97;;;;;;;-0.15;97.14;103597.69;5023398;28;20480;-58
2023/01/25 03:34:10;;;;;;;107.25;65.15;;;;;;;-0.15;96.78;103597.69;5032148;28;20041;-55
2023/01/25 03:36:35;;;;;;;111.60;65.63;;;;;;;-0.17;96.65;103584.63;5032024;28;20029;-57
2023/01/25 03:39:00;;;;;;;112.38;67.55;;;;;;;-0.16;96.60;103581.16;5021867;28;20048;-58
2023/01/25 03:41:25;;;;;;;107.68;64.22;;;;;;;-0.15;96.62;103582.94;5032016;28;20075;-58
2023/01/25 03:43:51;;;;;;;116.85;68.55;;;;;;;-0.14;96.94;103578.56;5021618;28;20045;-58
2023/01/25 03:46:16;;;;;;;109.88;65.93;;;;;;;-0.13;96.91;103577.69;5030328;28;20059;-58
2023/01/25 03:48:41;;;;;;;110.85;68.43;;;;;;;-0.14;96.66;103581.19;5031890;28;20033;-57
2023/01/25 03:51:07;;;;;;;108.00;65.18;;;;;;;-0.14;96.69;103583.78;5031621;28;20086;-58
2023/01/25 03:53:33;;;;;;;107.65;64.43;;;;;;;-0.14;97.07;103587.28;5031998;28;20030;-57
2023/01/25 03:56:03;;;;;;;114.85;68.20;;;;;;;-0.15;96.40;103584.63;5026486;28;20369;-57
2023/01/25 03:58:29;;;;;;;109.60;65.07;;;;;;;-0.17;96.33;103579.41;5031899;28;20388;-55
2023/01/25 04:00:56;;;;;;;107.43;63.03;;;;;;;-0.19;96.77;103587.22;5031366;28;20033;-58
2023/01/25 04:03:22;;;;;;;104.97;64.70;;;;;;;-0.22;96.66;103592.41;5031983;28;20026;-57
2023/01/25 04:05:48;;;;;;;105.85;64.07;;;;;;;-0.23;96.67;103581.94;5028948;28;20376;-57
2023/01/25 04:08:13;;;;;;;107.18;66.78;;;;;;;-0.24;96.29;103583.66;5036034;28;20032;-57
2023/01/25 04:10:39;;;;;;;104.00;64.07;;;;;;;-0.24;96.54;103575.81;5028521;28;20034;-57
2023/01/25 04:13:04;;;;;;;113.03;67.20;;;;;;;-0.22;96.79;103576.75;5036070;28;20021;-57
2023/01/25 04:15:30;;;;;;;107.60;65.68;;;;;;;-0.22;96.95;103575.84;5035638;28;20434;-57
2023/01/25 04:17:55;;;;;;;109.38;65.07;;;;;;;-0.24;95.94;103578.44;5035603;28;20041;-57
2023/01/25 04:20:21;;;;;;;111.85;65.45;;;;;;;-0.27;96.15;103575.78;5033778;28;20033;-56
2023/01/25 04:22:46;;;;;;;106.72;64.70;;;;;;;-0.30;96.14;103572.25;5035701;28;20364;-57
2023/01/25 04:25:11;;;;;;;115.35;68.05;;;;;;;-0.33;96.69;103567.91;5035320;28;20037;-57
2023/01/25 04:27:37;;;;;;;115.25;66.97;;;;;;;-0.33;96.47;103572.22;5028410;28;20041;-58
2023/01/25 04:30:03;;;;;;;109.15;63.78;;;;;;;-0.35;96.36;103571.31;5035532;28;20029;-58
2023/01/25 04:32:28;;;;;;;110.10;66.35;;;;;;;-0.34;95.92;103565.25;5035179;28;20029;-56
2023/01/25 04:34:53;;;;;;;109.30;64.28;;;;;;;-0.35;95.98;103568.72;5035363;28;20472;-57
2023/01/25 04:37:18;;;;;;;107.70;62.05;;;;;;;-0.38;95.77;103565.22;5030390;28;20033;-57
2023/01/25 04:39:44;;;;;;;107.90;62.78;;;;;;;-0.37;96.20;103571.31;5035079;28;20033;-56
2023/01/25 04:42:09;;;;;;;108.68;63.45;;;;;;;-0.39;96.06;103573.03;5035253;28;20060;-57
2023/01/25 04:44:34;;;;;;;104.00;61.08;;;;;;;-0.41;95.63;103565.16;5032635;28;20372;-56
2023/01/25 04:46:59;;;;;;;102.32;61.42;;;;;;;-0.41;95.11;103559.09;5035192;28;20029;-58
2023/01/25 04:49:25;;;;;;;104.00;60.80;;;;;;;-0.44;95.19;103569.47;5024482;28;20511;-56
2023/01/25 04:51:50;;;;;;;100.13;59.78;;;;;;;-0.47;95.30;103559.84;5032242;28;20029;-58
2023/01/25 04:54:15;;;;;;;100.38;60.45;;;;;;;-0.48;95.35;103557.22;5028942;28;20026;-58
2023/01/25 04:56:40;;;;;;;104.18;62.25;;;;;;;-0.50;95.81;103562.47;5029614;28;20047;-56
2023/01/25 04:59:06;;;;;;;103.38;61.95;;;;;;;-0.53;95.75;103559.78;5034801;28;20030;-58
2023/01/25 05:01:32;;;;;;;101.25;60.20;;;;;;;-0.54;96.21;103558.03;5034733;28;20112;-57
2023/01/25 05:03:58;;;;;;;99.20;58.30;;;;;;;-0.53;95.94;103553.69;5034830;28;20029;-56
2023/01/25 05:06:23;;;;;;;95.07;59.03;;;;;;;-0.52;95.90;103545.88;5021861;28;20041;-57
2023/01/25 05:08:48;;;;;;;98.03;57.85;;;;;;;-0.50;95.66;103540.66;5017051;28;20021;-56
2023/01/25 05:11:13;;;;;;;97.32;58.45;;;;;;;-0.49;96.14;103537.22;5031674;28;20033;-56
2023/01/25 05:13:39;;;;;;;102.47;60.17;;;;;;;-0.49;96.17;103543.31;5034826;28;20502;-57
2023/01/25 05:16:04;;;;;;;97.10;58.33;;;;;;;-0.49;95.83;103539.81;5034473;28;20018;-57
2023/01/25 05:18:30;;;;;;;96.95;58.67;;;;;;;-0.47;96.36;103543.31;5030866;28;20041;-58
2023/01/25 05:20:55;;;;;;;96.90;60.75;;;;;;;-0.46;95.94;103534.66;5035321;28;20017;-56
2023/01/25 05:23:21;;;;;;;96.63;59.55;;;;;;;-0.46;95.36;103537.25;5033630;28;20105;-55
2023/01/25 05:28:30;;;;;;;92.90;57.35;;;;;;;-0.45;95.96;103536.38;5034700;28;20053;-56
2023/01/25 05:30:55;;;;;;;96.47;57.00;;;;;;;-0.46;95.40;103537.25;5029935;28;20038;-54
2023/01/25 05:33:20;;;;;;;101.03;59.38;;;;;;;-0.47;95.55;103532.88;5030343;28;20036;-57
2023/01/25 05:35:46;;;;;;;103.63;59.33;;;;;;;-0.50;96.03;103532.84;5034298;28;20097;-57
2023/01/25 05:38:11;;;;;;;96.97;58.08;;;;;;;-0.51;96.27;103531.97;5034091;28;20040;-58
2023/01/25 05:40:36;;;;;;;98.18;59.80;;;;;;;-0.53;95.78;103536.31;5023547;28;20088;-56
2023/01/25 05:43:02;;;;;;;95.38;57.30;;;;;;;-0.54;95.40;103531.94;5033765;28;20492;-57
2023/01/25 05:45:28;;;;;;;96.43;57.28;;;;;;;-0.54;95.89;103531.94;5029944;28;20026;-57
2023/01/25 05:47:58;;;;;;;101.05;59.72;;;;;;;-0.53;96.03;103527.56;5029709;28;20112;-57
2023/01/25 05:50:25;;;;;;;95.32;57.83;;;;;;;-0.55;95.63;103527.53;5034040;28;20044;-56
2023/01/25 05:52:50;;;;;;;105.95;61.20;;;;;;;-0.54;96.10;103534.53;5033760;28;20420;-57
2023/01/25 05:55:16;;;;;;;107.13;60.60;;;;;;;-0.56;95.81;103528.44;5027907;28;20029;-57
2023/01/25 05:57:41;;;;;;;100.38;60.40;;;;;;;-0.57;96.18;103524.03;5033738;28;20026;-57
2023/01/25 06:00:07;;;;;;;98.95;59.33;;;;;;;-0.58;96.01;103528.41;5026384;28;20105;-57
2023/01/25 06:02:33;;;;;;;100.65;58.70;;;;;;;-0.59;95.89;103529.25;5028940;28;20063;-56
2023/01/25 06:04:58;;;;;;;98.75;59.95;;;;;;;-0.61;95.34;103523.13;5034113;28;20021;-57
2023/01/25 06:07:23;;;;;;;100.93;60.95;;;;;;;-0.61;95.91;103524.88;5033651;28;20030;-57
2023/01/25 06:09:49;;;;;;;96.38;59.03;;;;;;;-0.61;95.82;103524.88;5026235;28;20059;-55
2023/01/25 06:12:15;;;;;;;98.53;58.03;;;;;;;-0.60;96.13;103527.50;5033677;28;20087;-56
2023/01/25 06:14:40;;;;;;;98.90;58.05;;;;;;;-0.59;96.23;103520.53;5030349;28;20041;-56
2023/01/25 06:17:06;;;;;;;95.68;57.55;;;;;;;-0.59;96.18;103518.81;5033021;28;20037;-56
2023/01/25 06:19:31;;;;;;;99.88;59.10;;;;;;;-0.58;95.69;103527.53;5024088;28;20072;-56
2023/01/25 06:21:56;;;;;;;95.53;57.70;;;;;;;-0.59;96.38;103524.03;5033396;28;20104;-53
2023/01/25 06:24:21;;;;;;;95.72;57.30;;;;;;;-0.61;96.28;103520.53;5030695;28;20033;-56
2023/01/25 06:26:47;;;;;;;98.25;59.30;;;;;;;-0.60;96.43;103521.41;5033084;28;20026;-55
2023/01/25 06:29:12;;;;;;;91.75;56.85;;;;;;;-0.61;96.51;103528.34;5032609;28;20032;-55
2023/01/25 06:31:37;;;;;;;88.95;54.20;;;;;;;-0.62;96.31;103523.97;5032991;28;20022;-57
2023/01/25 06:34:03;;;;;;;87.38;53.35;;;;;;;-0.64;96.00;103524.84;5025642;28;20603;-56
2023/01/25 06:36:29;;;;;;;86.55;53.70;;;;;;;-0.70;95.72;103524.75;5027405;28;20033;-56
2023/01/25 06:38:54;;;;;;;87.90;52.75;;;;;;;-0.71;95.49;103517.78;5033067;28;20428;-57
2023/01/25 06:41:19;;;;;;;84.63;53.08;;;;;;;-0.71;96.47;103528.22;5028385;28;20128;-58
2023/01/25 06:43:46;;;;;;;91.72;53.25;;;;;;;-0.75;95.78;103525.56;5033353;28;20049;-58
2023/01/25 06:46:12;;;;;;;87.90;53.47;;;;;;;-0.78;96.14;103509.00;5033411;28;20025;-54
2023/01/25 06:48:38;;;;;;;88.32;54.33;;;;;;;-0.79;96.33;103522.88;5033326;28;20025;-57
2023/01/25 06:51:06;;;;;;;87.10;53.65;;;;;;;-0.79;96.31;103525.50;5021901;28;20046;-57
2023/01/25 06:53:34;;;;;;;90.65;54.75;;;;;;;-0.80;96.82;103513.28;5030849;28;20033;-58
2023/01/25 06:56:03;;;;;;;89.10;52.80;;;;;;;-0.78;96.39;103522.03;5028882;28;20042;-56
2023/01/25 06:58:29;;;;;;;87.40;52.83;;;;;;;-0.80;96.35;103521.13;5025328;28;20033;-58
2023/01/25 07:01:00;;;;;;;87.10;52.83;;;;;;;-0.81;96.66;103522.88;5027697;28;20104;-56
2023/01/25 07:03:26;;;;;;;86.90;54.72;;;;;;;-0.80;96.76;103513.28;5022541;28;20044;-56
2023/01/25 07:05:57;;;;;;;89.53;54.60;;;;;;;-0.80;96.32;103510.69;5035568;28;20021;-56
2023/01/25 07:08:22;;;;;;;85.88;54.15;;;;;;;-0.79;96.92;103509.84;5035358;28;20036;-58
2023/01/25 07:10:53;;;;;;;93.88;54.50;;;;;;;-0.79;96.62;103515.94;5024592;28;20021;-57
2023/01/25 07:13:18;;;;;;;87.03;53.03;;;;;;;-0.79;97.03;103520.28;5031495;28;20033;-58
2023/01/25 07:15:43;;;;;;;94.63;54.78;;;;;;;-0.79;97.08;103515.06;5032266;28;20384;-55
2023/01/25 07:18:09;;;;;;;88.80;54.80;;;;;;;-0.80;96.67;103508.97;5032505;28;20044;-57
2023/01/25 07:20:34;;;;;;;91.88;54.05;;;;;;;-0.78;96.85;103524.66;5023737;28;20413;-57
2023/01/25 07:22:59;;;;;;;88.13;53.85;;;;;;;-0.77;96.93;103516.84;5031388;28;20034;-57
2023/01/25 07:25:25;;;;;;;88.10;53.75;;;;;;;-0.79;96.74;103525.50;5023284;28;20409;-56
2023/01/25 07:27:50;;;;;;;85.30;52.10;;;;;;;-0.79;96.67;103522.88;5016697;28;20059;-58
2023/01/25 07:30:16;;;;;;;85.30;51.67;;;;;;;-0.81;97.38;103512.44;5019118;28;20048;-57
2023/01/25 07:32:42;;;;;;;83.18;51.58;;;;;;;-0.82;96.84;103515.00;5019151;28;20053;-58
2023/01/25 07:35:07;;;;;;;82.63;50.30;;;;;;;-0.85;96.39;103509.75;5024587;28;20073;-56
2023/01/25 07:37:33;;;;;;;83.47;50.38;;;;;;;-0.89;96.29;103510.56;5019190;28;20021;-58
2023/01/25 07:39:58;;;;;;;83.57;51.03;;;;;;;-0.89;96.92;103510.56;5019729;28;20479;-58
2023/01/25 07:42:24;;;;;;;83.15;50.95;;;;;;;-0.88;97.18;103513.22;5021464;28;20111;-58
2023/01/25 07:44:49;;;;;;;83.30;51.00;;;;;;;-0.85;97.64;103502.81;5026312;28;20443;-56
2023/01/25 07:47:15;;;;;;;83.75;51.22;;;;;;;-0.84;97.40;103501.06;5026543;28;20037;-57
2023/01/25 07:49:40;;;;;;;85.38;51.22;;;;;;;-0.83;97.19;103498.50;5029062;28;20494;-55
2023/01/25 07:52:05;;;;;;;90.35;53.00;;;;;;;-0.81;97.16;103501.13;5021857;28;20034;-57
2023/01/25 07:54:31;;;;;;;83.55;51.63;;;;;;;-0.82;97.10;103499.34;5025114;28;20025;-56
2023/01/25 07:56:57;;;;;;;89.80;51.03;;;;;;;-0.81;96.78;103511.56;5024638;28;20094;-57
2023/01/25 07:59:23;;;;;;;85.72;51.63;;;;;;;-0.83;96.58;103498.50;5018731;28;20069;-55
2023/01/25 08:01:48;;;;;;;82.00;51.92;;;;;;;-0.83;96.86;103502.84;5009654;28;20034;-58
2023/01/25 08:04:13;;;;;;;86.68;51.88;;;;;;;-0.80;97.17;103502.84;5018968;28;20029;-58
2023/01/25 08:06:39;;;;;;;86.80;51.38;;;;;;;-0.83;96.10;103506.31;5016282;28;20048;-56
2023/01/25 08:09:11;;;;;;;81.63;50.63;;;;;;;-0.84;96.32;103501.94;5015138;28;20045;-58
2023/01/25 08:11:36;;;;;;;87.68;53.58;;;;;;;-0.88;96.17;103497.56;5018373;28;20596;-55
2023/01/25 08:14:02;;;;;;;85.03;52.13;;;;;;;-0.88;96.75;103494.03;5018309;28;20164;-57
2023/01/25 08:16:29;;;;;;;88.75;52.25;;;;;;;-0.88;96.51;103494.03;5018718;28;20045;-57
2023/01/25 08:18:57;;;;;;;86.72;51.58;;;;;;;-0.88;96.53;103489.72;5016056;28;20033;-58
2023/01/25 08:21:24;;;;;;;87.43;52.33;;;;;;;-0.86;96.67;103488.00;5018967;28;20085;-57
2023/01/25 08:23:50;;;;;;;89.82;54.25;;;;;;;-0.86;96.56;103500.19;5018746;28;20038;-57
2023/01/25 08:26:18;;;;;;;86.00;53.00;;;;;;;-0.85;97.02;103495.00;5025436;28;20018;-56
2023/01/25 08:28:43;;;;;;;86.75;52.17;;;;;;;-0.87;96.99;103490.59;5026951;28;20489;-54
2023/01/25 08:31:12;;;;;;;88.97;52.72;;;;;;;-0.86;96.78;103482.78;5027783;28;20029;-58
2023/01/25 08:33:38;;;;;;;88.50;52.75;;;;;;;-0.87;96.65;103477.53;5029441;28;20021;-56
2023/01/25 08:36:04;;;;;;;88.70;52.90;;;;;;;-0.84;96.76;103488.03;5029149;28;20423;-58
2023/01/25 08:38:30;;;;;;;90.80;53.55;;;;;;;-0.85;96.66;103486.25;5027975;28;20057;-56
2023/01/25 08:41:02;;;;;;;91.88;54.15;;;;;;;-0.86;96.53;103488.00;5027150;28;20049;-55
2023/01/25 08:43:28;;;;;;;83.05;49.97;;;;;;;-0.90;96.25;103480.09;4991561;28;1038826;-58
2023/01/25 08:45:56;;;;;;;88.28;52.40;;;;;;;-0.94;96.62;103487.88;5017542;28;20056;-58
2023/01/25 08:48:22;;;;;;;92.50;53.78;;;;;;;-0.91;97.04;103484.47;5015550;28;20041;-55
2023/01/25 08:50:47;;;;;;;87.93;52.22;;;;;;;-0.89;96.97;103487.09;5015993;28;20484;-58
2023/01/25 08:53:13;;;;;;;91.90;53.08;;;;;;;-0.86;97.10;103487.13;5022865;28;20017;-56
2023/01/25 08:55:40;;;;;;;90.43;51.88;;;;;;;-0.83;97.12;103487.19;5020908;28;20022;-56
2023/01/25 08:58:09;;;;;;;96.22;54.03;;;;;;;-0.84;96.83;103483.69;5017514;28;20476;-57
2023/01/25 09:00:35;;;;;;;;;;;;;;;-0.75;96.93;103482.91;5018908;28;20113;-56
2023/01/25 09:03:00;;;;;;;90.37;51.23;;;;;;;-0.82;96.43;103484.56;5009196;28;21930;-57
2023/01/25 09:05:25;;;;;;;92.60;53.75;;;;;;;-0.83;96.89;103471.53;5020416;28;20354;-58
2023/01/25 09:07:50;;;;;;;97.32;54.42;;;;;;;-0.86;96.34;103469.75;5033369;28;20033;-57
2023/01/25 09:10:16;;;;;;;94.97;54.35;;;;;;;-0.91;96.57;103466.19;5033098;28;20097;-58
2023/01/25 09:12:41;;;;;;;92.70;52.90;;;;;;;-0.93;96.75;103467.91;5024410;28;20384;-58
2023/01/25 09:15:07;;;;;;;92.07;54.13;;;;;;;-0.91;97.09;103467.94;5034400;28;20045;-58
2023/01/25 09:17:32;;;;;;;91.97;53.35;;;;;;;-0.91;96.47;103466.19;5034350;28;20021;-57
2023/01/25 09:19:57;;;;;;;101.57;57.60;;;;;;;-0.94;96.62;103466.16;5023800;28;20052;-58
2023/01/25 09:22:22;;;;;;;94.55;54.15;;;;;;;-0.95;96.74;103462.66;5028174;28;20034;-58
2023/01/25 09:24:51;;;;;;;90.30;51.92;;;;;;;-0.96;96.67;103460.91;5031273;28;20018;-55
2023/01/25 09:27:16;;;;;;;89.82;53.15;;;;;;;-0.95;96.48;103456.56;5034176;28;20041;-58
2023/01/25 09:29:41;;;;;;;97.30;54.70;;;;;;;-0.93;96.85;103462.69;5034293;28;20475;-58
2023/01/25 09:32:07;;;;;;;91.53;51.45;;;;;;;-0.91;97.00;103460.09;5028805;28;20116;-57
2023/01/25 09:34:32;;;;;;;93.95;54.33;;;;;;;-0.91;96.87;103463.59;5031131;28;20063;-57
2023/01/25 09:36:57;;;;;;;94.85;53.45;;;;;;;-0.90;97.14;103462.72;5033516;28;20028;-58
2023/01/25 09:39:22;;;;;;;91.13;54.03;;;;;;;-0.87;96.89;103461.88;5030481;28;20440;-58
2023/01/25 09:42:21;;;;;;;94.78;54.65;;;;;;;-0.86;96.97;103455.81;5033829;28;20048;-58
2023/01/25 09:45:28;;;;;;;100.13;55.53;;;;;;;-0.79;97.24;103457.66;5032402;28;20486;-58
2023/01/25 09:48:03;;;;;;;109.22;58.38;;;;;;;-0.80;96.80;103462.00;4993271;28;20033;-59
2023/01/25 09:51:02;;;;;;;102.30;56.47;;;;;;;-0.78;96.99;103460.28;5026505;28;20104;-58
2023/01/25 09:53:35;;;;;;;100.53;55.42;;;;;;;-0.75;97.26;103460.31;5030801;28;20037;-56
2023/01/25 09:56:14;;;;;;;101.57;55.72;;;;;;;-0.71;96.53;103460.38;5032641;28;20073;-58
2023/01/25 09:58:44;;;;;;;102.85;55.20;;;;;;;-0.70;96.52;103457.78;5023901;28;20377;-57
2023/01/25 10:01:18;;;;;;;101.28;57.55;;;;;;;-0.67;96.53;103456.94;5031699;28;20083;-58
2023/01/25 10:03:55;;;;;;;102.15;57.72;;;;;;;-0.67;96.33;103456.94;5027957;28;20030;-58
2023/01/25 10:06:27;;;;;;;100.00;56.75;;;;;;;-0.67;96.97;103455.19;5025124;28;20017;-58
2023/01/25 10:09:07;;;;;;;95.20;54.97;;;;;;;-0.62;96.90;103463.94;5024415;28;20049;-57
2023/01/25 10:11:33;;;;;;;100.32;53.80;;;;;;;-0.61;96.88;103457.88;5036788;28;20077;-58
2023/01/25 10:13:59;;;;;;;96.55;54.83;;;;;;;-0.60;96.50;103443.97;5021232;28;20068;-58
2023/01/25 10:16:36;;;;;;;95.47;53.90;;;;;;;-0.58;96.17;103444.00;5030421;28;20029;-58
2023/01/25 10:19:37;;;;;;;97.22;55.00;;;;;;;-0.53;96.25;103439.72;5027609;28;20033;-59
2023/01/25 10:22:22;;;;;;;96.60;53.85;;;;;;;-0.56;95.86;103432.69;5030670;28;20049;-58
2023/01/25 10:25:18;;;;;;;101.28;54.03;;;;;;;-0.59;95.76;103432.66;5027145;28;20030;-58
2023/01/25 10:28:03;;;;;;;90.63;53.53;;;;;;;-0.59;96.13;103439.63;5025324;28;20594;-59
2023/01/25 10:31:02;;;;;;;93.70;52.45;;;;;;;-0.60;95.47;103443.97;5029987;28;20053;-58
2023/01/25 10:33:29;;;;;;;93.78;53.05;;;;;;;-0.58;95.49;103431.81;4995836;28;20121;-58
2023/01/25 10:35:58;;;;;;;96.45;54.13;;;;;;;-0.58;95.70;103429.22;5024499;28;20038;-58
2023/01/25 10:38:29;;;;;;;96.50;55.25;;;;;;;-0.56;95.27;103426.63;5028951;28;20029;-58
2023/01/25 10:41:01;;;;;;;90.75;52.50;;;;;;;-0.56;95.92;103419.66;5023841;28;20068;-58
2023/01/25 10:43:26;;;;;;;96.68;53.67;;;;;;;-0.54;96.08;103405.75;5027993;28;20058;-57
2023/01/25 10:45:52;;;;;;;103.35;56.38;;;;;;;-0.51;95.89;103400.56;5026119;28;20025;-57
2023/01/25 10:48:21;;;;;;;101.40;55.85;;;;;;;-0.50;95.54;103397.97;5029434;28;20029;-59
2023/01/25 10:50:50;;;;;;;98.55;54.45;;;;;;;-0.53;94.86;103387.50;5023163;28;20025;-58
2023/01/25 10:53:25;;;;;;;99.50;55.35;;;;;;;-0.53;95.66;103386.59;5030411;28;20025;-57
2023/01/25 10:56:24;;;;;;;98.30;54.35;;;;;;;-0.49;95.67;103377.97;5019217;28;20046;-57
2023/01/25 10:58:53;;;;;;;97.97;54.05;;;;;;;-0.52;95.40;103376.19;5018395;28;20492;-57
2023/01/25 11:01:30;;;;;;;93.22;54.92;;;;;;;-0.49;94.77;103372.75;5030649;28;20029;-58
2023/01/25 11:03:57;;;;;;;97.38;53.33;;;;;;;-0.50;94.74;103366.66;5023471;28;20186;-57
2023/01/25 11:06:35;;;;;;;90.22;51.45;;;;;;;-0.51;94.96;103367.50;5030660;28;20037;-58
2023/01/25 11:09:21;;;;;;;96.28;54.20;;;;;;;-0.51;94.90;103358.81;5026689;28;20033;-57
2023/01/25 11:11:54;;;;;;;96.93;53.88;;;;;;;-0.51;95.06;103354.44;5030626;28;20092;-58
2023/01/25 11:14:23;;;;;;;96.47;53.97;;;;;;;-0.53;94.60;103342.22;5017600;28;20053;-58
2023/01/25 11:16:48;;;;;;;97.30;54.38;;;;;;;-0.55;94.53;103339.59;5023785;28;20049;-58